createdAt,value
2022-11-12T00:04:23.747Z,100.00
2022-11-12T00:09:44.791Z,100.00
2022-11-12T00:15:06.771Z,100.00
2022-11-12T00:20:28.025Z,100.00
2022-11-12T00:25:59.148Z,100.00
2022-11-12T00:31:20.540Z,100.00
2022-11-12T00:36:41.555Z,100.00
2022-11-12T00:42:02.857Z,100.00
2022-11-12T00:47:24.854Z,100.00
2022-11-12T00:52:46.187Z,100.00
2022-11-12T00:58:07.401Z,100.00
2022-11-12T01:03:28.734Z,100.00
2022-11-12T01:08:51.148Z,100.00
2022-11-12T01:14:12.249Z,100.00
2022-11-12T01:19:33.636Z,100.00
2022-11-12T01:24:54.751Z,100.00
2022-11-12T01:30:16.527Z,100.00
2022-11-12T01:35:37.631Z,100.00
2022-11-12T01:40:58.701Z,100.00
2022-11-12T01:46:24.728Z,100.00
2022-11-12T01:51:50.286Z,100.00
2022-11-12T01:57:13.163Z,100.00
2022-11-12T02:02:36.301Z,100.00
2022-11-12T02:08:00.311Z,100.00
2022-11-12T02:13:40.458Z,100.00
2022-11-12T02:19:03.482Z,100.00
2022-11-12T02:24:24.347Z,100.00
2022-11-12T02:29:48.695Z,100.00
2022-11-12T02:35:09.883Z,100.00
2022-11-12T02:40:31.030Z,100.00
2022-11-12T02:45:52.163Z,100.00
2022-11-12T02:51:13.430Z,100.00
2022-11-12T02:56:35.583Z,100.00
2022-11-12T03:01:56.667Z,100.00
2022-11-12T03:07:17.978Z,100.00
2022-11-12T03:12:38.866Z,100.00
2022-11-12T03:18:00.424Z,100.00
2022-11-12T03:23:21.564Z,100.00
2022-11-12T03:28:42.669Z,100.00
2022-11-12T03:34:03.908Z,100.00
2022-11-12T03:39:25.233Z,100.00
2022-11-12T03:44:46.890Z,100.00
2022-11-12T03:50:10.349Z,100.00
2022-11-12T03:55:31.801Z,100.00
2022-11-12T04:00:53.562Z,100.00
2022-11-12T04:06:33.049Z,100.00
2022-11-12T04:11:54.289Z,100.00
2022-11-12T04:17:50.959Z,100.00
2022-11-12T04:23:12.197Z,100.00
2022-11-12T04:28:33.564Z,100.00
2022-11-12T04:33:54.814Z,100.00
2022-11-12T04:39:16.049Z,100.00
2022-11-12T04:44:56.092Z,100.00
2022-11-12T04:50:19.080Z,100.00
2022-11-12T04:55:40.375Z,100.00
2022-11-12T05:01:04.084Z,100.00
2022-11-12T05:06:44.009Z,100.00
2022-11-12T05:12:05.433Z,100.00
2022-11-12T05:17:26.523Z,100.00
2022-11-12T05:23:04.477Z,100.00
2022-11-12T05:28:27.340Z,100.00
2022-11-12T05:33:48.327Z,100.00
2022-11-12T05:39:09.727Z,100.00
2022-11-12T05:44:30.860Z,100.00
2022-11-12T05:49:51.839Z,100.00
2022-11-12T05:55:13.308Z,100.00
2022-11-12T06:00:39.006Z,100.00
2022-11-12T06:06:00.073Z,100.00
2022-11-12T06:11:21.327Z,100.00
2022-11-12T06:16:42.352Z,100.00
2022-11-12T06:22:03.518Z,100.00
2022-11-12T06:27:24.455Z,100.00
2022-11-12T06:32:49.805Z,99.48
2022-11-12T06:38:11.018Z,99.66
2022-11-12T06:43:33.826Z,98.91
2022-11-12T06:48:55.140Z,98.89
2022-11-12T06:54:16.144Z,98.47
2022-11-12T06:59:37.348Z,98.41
2022-11-12T07:04:58.699Z,98.37
2022-11-12T07:10:20.392Z,98.18
2022-11-12T07:15:48.446Z,98.01
2022-11-12T07:21:16.177Z,97.79
2022-11-12T07:26:37.516Z,97.34
2022-11-12T07:31:58.426Z,96.87
2022-11-12T07:37:19.859Z,96.81
2022-11-12T07:42:41.259Z,96.98
2022-11-12T07:48:02.369Z,96.77
2022-11-12T07:53:23.400Z,96.35
2022-11-12T07:58:44.991Z,96.20
2022-11-12T08:04:09.609Z,96.79
2022-11-12T08:09:30.764Z,96.83
2022-11-12T08:14:52.887Z,96.98
2022-11-12T08:20:14.556Z,97.16
2022-11-12T08:25:36.490Z,98.20
2022-11-12T08:30:58.595Z,98.55
2022-11-12T08:36:19.826Z,98.98
2022-11-12T08:41:40.808Z,98.34
2022-11-12T08:47:02.318Z,97.20
2022-11-12T08:52:23.578Z,97.78
2022-11-12T08:57:45.322Z,98.21
2022-11-12T09:03:08.648Z,98.23
2022-11-12T09:08:30.036Z,98.08
2022-11-12T09:13:53.565Z,98.35
2022-11-12T09:19:14.631Z,97.80
2022-11-12T09:24:36.087Z,97.95
2022-11-12T09:29:57.286Z,98.19
2022-11-12T09:35:18.500Z,99.24
2022-11-12T09:40:51.715Z,99.12
2022-11-12T09:46:28.564Z,99.09
2022-11-12T09:52:03.303Z,97.83
2022-11-12T09:57:24.291Z,97.55
2022-11-12T10:02:55.550Z,97.59
2022-11-12T10:08:42.635Z,96.97
2022-11-12T10:14:25.259Z,97.00
2022-11-12T10:20:04.906Z,97.34
2022-11-12T10:25:26.464Z,97.85
2022-11-12T10:30:48.183Z,97.80
2022-11-12T10:36:33.576Z,97.27
2022-11-12T10:42:16.428Z,97.57
2022-11-12T10:47:43.079Z,98.17
2022-11-12T10:53:08.023Z,98.31
2022-11-12T10:58:29.538Z,99.65
2022-11-12T11:03:58.360Z,100.00
2022-11-12T11:09:56.735Z,100.00
2022-11-12T11:15:24.044Z,100.00
2022-11-12T11:20:58.350Z,100.00
2022-11-12T11:26:28.311Z,100.00
2022-11-12T11:32:08.249Z,100.00
2022-11-12T11:37:31.351Z,100.00
2022-11-12T11:42:52.924Z,100.00
2022-11-12T11:48:20.916Z,100.00
2022-11-12T11:53:57.769Z,100.00
2022-11-12T11:59:50.965Z,100.00
2022-11-12T12:05:33.987Z,100.00
2022-11-12T12:11:18.626Z,100.00
2022-11-12T12:17:17.597Z,100.00
2022-11-12T12:22:46.776Z,100.00
2022-11-12T12:28:10.951Z,100.00
2022-11-12T12:33:45.782Z,100.00
2022-11-12T12:39:18.979Z,100.00
2022-11-12T12:45:03.400Z,100.00
2022-11-12T12:50:26.376Z,100.00
2022-11-12T12:55:50.653Z,100.00
2022-11-12T13:01:29.423Z,100.00
2022-11-12T13:06:50.267Z,100.00
2022-11-12T13:12:11.827Z,100.00
2022-11-12T13:17:45.078Z,100.00
2022-11-12T13:23:11.228Z,100.00
2022-11-12T13:28:32.124Z,100.00
2022-11-12T13:33:53.803Z,100.00
2022-11-12T13:39:19.025Z,100.00
2022-11-12T13:44:40.148Z,100.00
2022-11-12T13:50:02.049Z,100.00
2022-11-12T13:55:23.520Z,100.00
2022-11-12T14:01:01.790Z,100.00
2022-11-12T14:06:35.807Z,100.00
2022-11-12T14:12:02.986Z,100.00
2022-11-12T14:17:23.949Z,100.00
2022-11-12T14:22:46.187Z,100.00
2022-11-12T14:28:28.876Z,100.00
2022-11-12T14:33:50.759Z,100.00
2022-11-12T14:39:12.587Z,100.00
2022-11-12T14:44:38.431Z,100.00
2022-11-12T14:49:59.452Z,100.00
2022-11-12T14:55:30.807Z,100.00
2022-11-12T15:00:54.519Z,100.00
2022-11-12T15:06:21.205Z,100.00
2022-11-12T15:11:42.447Z,100.00
2022-11-12T15:17:05.743Z,100.00
2022-11-12T15:22:27.917Z,100.00
2022-11-12T15:27:50.177Z,100.00
2022-11-12T15:33:11.310Z,100.00
2022-11-12T15:38:37.906Z,100.00
2022-11-12T15:44:00.404Z,100.00
2022-11-12T15:49:21.717Z,100.00
2022-11-12T15:54:43.175Z,100.00
2022-11-12T16:00:13.824Z,100.00
2022-11-12T16:05:35.096Z,100.00
2022-11-12T16:10:56.424Z,100.00
2022-11-12T16:16:18.076Z,99.67
2022-11-12T16:21:39.843Z,98.01
2022-11-12T16:27:02.503Z,97.02
2022-11-12T16:32:23.820Z,95.83
2022-11-12T16:37:46.536Z,95.57
2022-11-12T16:43:07.940Z,94.30
2022-11-12T16:48:29.004Z,93.45
2022-11-12T16:53:50.162Z,91.76
2022-11-12T16:59:14.579Z,90.94
2022-11-12T17:04:35.401Z,90.77
2022-11-12T17:09:56.956Z,90.98
2022-11-12T17:15:18.172Z,90.49
2022-11-12T17:20:39.812Z,90.47
2022-11-12T17:26:03.089Z,89.88
2022-11-12T17:31:24.926Z,89.35
2022-11-12T17:36:46.068Z,88.27
2022-11-12T17:42:07.192Z,88.59
2022-11-12T17:47:28.399Z,88.61
2022-11-12T17:52:49.717Z,87.92
2022-11-12T17:58:11.363Z,87.33
2022-11-12T18:03:32.769Z,86.52
2022-11-12T18:08:56.800Z,86.18
2022-11-12T18:14:23.577Z,85.45
2022-11-12T18:19:45.147Z,85.05
2022-11-12T18:25:07.094Z,83.80
2022-11-12T18:30:28.192Z,83.94
2022-11-12T18:35:59.679Z,83.14
2022-11-12T18:41:25.994Z,82.17
2022-11-12T18:46:49.732Z,81.92
2022-11-12T18:52:11.070Z,81.45
2022-11-12T18:57:32.311Z,81.21
2022-11-12T19:02:53.391Z,81.37
2022-11-12T19:08:14.758Z,81.68
2022-11-12T19:13:36.846Z,81.13
2022-11-12T19:19:00.668Z,81.09
2022-11-12T19:24:22.094Z,80.46
2022-11-12T19:29:43.700Z,80.05
2022-11-12T19:35:06.670Z,79.12
2022-11-12T19:40:28.069Z,78.33
2022-11-12T19:45:49.356Z,77.99
2022-11-12T19:51:14.201Z,77.23
2022-11-12T19:56:38.405Z,76.66
2022-11-12T20:02:03.172Z,76.45
2022-11-12T20:07:25.263Z,76.46
2022-11-12T20:12:47.557Z,75.66
2022-11-12T20:18:10.076Z,75.28
2022-11-12T20:23:36.633Z,75.08
2022-11-12T20:28:57.628Z,75.18
2022-11-12T20:34:19.186Z,75.39
2022-11-12T20:39:40.240Z,74.94
2022-11-12T20:45:01.652Z,75.15
2022-11-12T20:50:22.967Z,75.67
2022-11-12T20:55:44.113Z,75.44
2022-11-12T21:01:07.637Z,75.53
2022-11-12T21:06:29.582Z,75.58
2022-11-12T21:11:51.056Z,75.81
2022-11-12T21:17:11.942Z,75.63
2022-11-12T21:22:33.960Z,75.63
2022-11-12T21:27:55.003Z,75.39
2022-11-12T21:33:16.288Z,75.38
2022-11-12T21:38:37.678Z,74.80
2022-11-12T21:43:59.022Z,74.49
2022-11-12T21:49:20.086Z,73.94
2022-11-12T21:54:41.891Z,74.48
2022-11-12T22:00:34.595Z,73.45
2022-11-12T22:05:44.668Z,73.82
2022-11-12T22:11:08.399Z,73.96
2022-11-12T22:16:29.945Z,73.16
2022-11-12T22:21:51.111Z,72.32
2022-11-12T22:27:12.048Z,70.88
2022-11-12T22:32:33.340Z,68.30
2022-11-12T22:37:55.410Z,66.35
2022-11-12T22:43:16.524Z,64.89
2022-11-12T22:48:38.186Z,64.04
2022-11-12T22:54:02.337Z,64.13
2022-11-12T22:59:23.682Z,64.00
2022-11-12T23:04:44.936Z,63.31
2022-11-12T23:10:06.831Z,62.60
2022-11-12T23:15:31.239Z,61.20
2022-11-12T23:20:52.260Z,61.32
2022-11-12T23:26:24.580Z,61.71
2022-11-12T23:31:45.471Z,62.95
2022-11-12T23:37:06.843Z,63.60
2022-11-12T23:42:29.416Z,63.35
2022-11-12T23:47:50.896Z,62.35
2022-11-12T23:53:11.870Z,60.84
2022-11-12T23:58:33.348Z,59.67
